Kacug, Russia
Current Conditions -  °F | °C
As of 2:30 PM on Wednesday 22 Oct 2014 (Local Time) from UIII Reporting Station
Overcast Overcast  
Wind Chill: 39°   Ceiling: 10000
Heat Index: 39°   Visibility: 6mi
Dew Point: 32°   Wind: 0mph
Humidity: 75%   Direction: NA
Pressure: 30.03"   Gusts: NA
Location:  53.97°N, 105.9°E
Report Text: UIII 220630Z 00000MPS 9999 SCT026CB OVC100 04/M00 Q1017 NOSIGRMK QFE718/0958 30290150
Loading
Personal Weather Stations






























Interactive Weather Map
Tropical Storm Tracking
New forecast layout! Learn more

10-Day Weather Forecast

Advertisements
Track Severe Weather on mobile